Time;durP1;ratioP1;P1;durP2;ratioP2;P2;SDS_P1;SDS_P2;PMS_P1;PMS_P2;Temp;Humidity;BMP_temperature;BMP_pressure;BME280_temperature;BME280_humidity;BME280_pressure;Samples;Min_cycle;Max_cycle;Signal;HPM_P1;HPM_P2
2021/01/31 00:00:26;;;;;;;16.77;14.18;;;;;;;0.30;100.00;99433.44;10252038;29;20071;-76
2021/01/31 00:05:31;;;;;;;17.67;14.23;;;;;;;0.07;100.00;99409.78;10238610;28;20439;-76
2021/01/31 00:10:33;;;;;;;20.50;18.27;;;;;;;-0.03;100.00;99406.53;10268493;28;20053;-75
2021/01/31 00:15:39;;;;;;;17.98;14.20;;;;;;;0.09;100.00;99428.69;10277564;28;20079;-75
2021/01/31 00:20:45;;;;;;;14.93;12.15;;;;;;;0.09;100.00;99420.06;10266351;28;20047;-75
2021/01/31 00:25:46;;;;;;;19.48;12.68;;;;;;;-0.13;100.00;99417.94;10240023;28;20510;-75
2021/01/31 00:30:47;;;;;;;17.25;13.57;;;;;;;-0.12;100.00;99429.16;10253947;28;20043;-75
2021/01/31 00:35:50;;;;;;;16.42;12.80;;;;;;;-0.12;100.00;99431.75;10254176;29;20047;-75
2021/01/31 00:40:52;;;;;;;20.30;14.23;;;;;;;-0.08;100.00;99442.00;10234777;29;20055;-76
2021/01/31 00:45:54;;;;;;;17.23;12.88;;;;;;;-0.15;100.00;99439.56;10253693;28;20046;-76
2021/01/31 00:50:56;;;;;;;19.23;14.80;;;;;;;-0.06;100.00;99460.09;10282249;28;20495;-76
2021/01/31 00:55:59;;;;;;;19.45;14.38;;;;;;;-0.17;100.00;99439.56;10251972;29;20047;-76
2021/01/31 01:01:11;;;;;;;20.48;14.07;;;;;;;-0.16;100.00;99462.00;10235518;29;20056;-75
2021/01/31 01:06:13;;;;;;;21.10;15.35;;;;;;;-0.21;100.00;99460.38;10237081;29;20059;-76
2021/01/31 01:11:15;;;;;;;20.92;17.17;;;;;;;-0.17;100.00;99475.00;10235990;29;20051;-75
2021/01/31 01:16:16;;;;;;;21.23;17.10;;;;;;;-0.35;100.00;99457.22;10236114;28;20047;-75
2021/01/31 01:21:17;;;;;;;18.48;14.27;;;;;;;-0.29;100.00;99476.06;10253472;29;20048;-76
2021/01/31 01:26:19;;;;;;;13.50;11.00;;;;;;;-0.30;100.00;99484.69;10274375;28;20070;-76
2021/01/31 01:31:20;;;;;;;15.52;12.32;;;;;;;-0.25;100.00;99494.97;10238556;29;20496;-76
2021/01/31 01:36:21;;;;;;;15.82;12.32;;;;;;;-0.23;100.00;99508.72;10252887;29;20468;-76
2021/01/31 01:41:23;;;;;;;15.70;11.85;;;;;;;-0.35;100.00;99496.88;10254709;28;20055;-76
2021/01/31 01:46:34;;;;;;;14.52;10.77;;;;;;;-0.34;100.00;99503.75;10260996;28;20046;-76
2021/01/31 01:51:49;;;;;;;16.70;12.32;;;;;;;-0.46;100.00;99480.69;10260015;28;20122;-75
2021/01/31 01:56:56;;;;;;;13.50;10.00;;;;;;;-0.47;100.00;99497.94;10243376;29;20039;-76
2021/01/31 02:02:08;;;;;;;17.73;13.43;;;;;;;-0.54;100.00;99496.34;10259349;29;20475;-75
2021/01/31 02:07:10;;;;;;;15.50;12.35;;;;;;;-0.62;100.00;99490.44;10243115;29;20380;-75
2021/01/31 02:12:12;;;;;;;16.65;12.50;;;;;;;-0.59;100.00;99493.00;10242527;29;20059;-75
2021/01/31 02:17:25;;;;;;;17.77;11.80;;;;;;;-0.67;100.00;99475.91;10242359;29;20047;-75
2021/01/31 02:22:48;;;;;;;19.63;13.75;;;;;;;-0.70;100.00;99486.28;10259695;29;20396;-75
2021/01/31 02:28:27;;;;;;;16.83;12.60;;;;;;;-0.78;100.00;99484.69;10285380;28;20064;-75
2021/01/31 02:33:49;;;;;;;15.75;12.48;;;;;;;-0.81;100.00;99486.47;10258885;29;20054;-76
2021/01/31 02:39:02;;;;;;;15.35;11.45;;;;;;;-0.86;100.00;99481.38;10258310;28;20062;-75
2021/01/31 02:44:08;;;;;;;16.83;13.02;;;;;;;-0.93;100.00;99478.91;10241444;29;20044;-76
2021/01/31 02:49:09;;;;;;;16.92;13.77;;;;;;;-1.00;100.00;99482.44;10284902;28;20399;-76
2021/01/31 02:54:21;;;;;;;16.73;13.00;;;;;;;-1.04;100.00;99488.56;10279675;28;20061;-75
2021/01/31 02:59:28;;;;;;;18.70;15.35;;;;;;;-1.15;100.00;99484.41;10298414;28;20050;-76
2021/01/31 03:04:41;;;;;;;16.35;13.35;;;;;;;-1.10;100.00;99501.59;10297862;28;20058;-76
2021/01/31 03:10:07;;;;;;;17.05;13.52;;;;;;;-1.20;100.00;99491.38;10268459;28;20075;-76
2021/01/31 03:15:11;;;;;;;;;;;;;;;-1.19;100.00;99500.84;10258091;28;20051;-75
2021/01/31 03:20:18;;;;;;;13.38;9.32;;;;;;;-1.24;100.00;99492.28;10257355;28;19926;-76
2021/01/31 03:25:29;;;;;;;13.73;10.13;;;;;;;-1.37;100.00;99470.09;10270685;28;20047;-76
2021/01/31 03:30:30;;;;;;;10.93;8.75;;;;;;;-1.47;100.00;99463.34;10291922;28;20403;-75
2021/01/31 03:35:41;;;;;;;14.70;10.10;;;;;;;-1.40;100.00;99480.47;10262437;28;20047;-76
2021/01/31 03:40:46;;;;;;;13.88;9.82;;;;;;;-1.43;100.00;99474.50;10215338;29;20389;-76
2021/01/31 03:46:15;;;;;;;15.93;10.27;;;;;;;-1.40;100.00;99480.47;10216866;29;20044;-75
2021/01/31 03:51:18;;;;;;;12.40;9.77;;;;;;;-1.41;100.00;99485.66;10177357;29;20403;-75
2021/01/31 03:56:42;;;;;;;15.40;10.95;;;;;;;-1.37;100.00;99490.78;10188758;29;20040;-76
2021/01/31 04:01:44;;;;;;;12.35;9.68;;;;;;;-1.46;100.00;99488.31;10173200;29;20104;-76
2021/01/31 04:06:50;;;;;;;12.38;9.75;;;;;;;-1.34;100.00;99516.53;10187664;29;20054;-75
2021/01/31 04:12:02;;;;;;;12.60;9.25;;;;;;;-1.49;100.00;99496.09;10207979;29;20374;-75
2021/01/31 04:17:03;;;;;;;12.95;8.95;;;;;;;-1.41;100.00;99512.34;10203704;29;20102;-75
2021/01/31 04:22:04;;;;;;;12.73;9.50;;;;;;;-1.45;100.00;99510.69;10229990;29;20414;-75
2021/01/31 04:27:05;;;;;;;12.27;8.38;;;;;;;-1.45;100.00;99523.59;10252781;28;20497;-75
2021/01/31 04:32:07;;;;;;;13.23;9.63;;;;;;;-1.44;100.00;99521.88;10214588;29;20050;-76
2021/01/31 04:37:08;;;;;;;14.10;9.65;;;;;;;-1.49;100.00;99519.31;10214796;29;20082;-75
2021/01/31 04:42:09;;;;;;;11.85;8.18;;;;;;;-1.44;100.00;99520.16;10213033;29;20412;-76
2021/01/31 04:47:25;;;;;;;12.38;8.93;;;;;;;-1.39;100.00;99540.72;10224546;29;20050;-75
2021/01/31 04:52:49;;;;;;;13.52;8.75;;;;;;;-1.39;100.00;99538.16;10254429;28;20055;-75
2021/01/31 04:58:13;;;;;;;10.65;8.13;;;;;;;-1.40;100.00;99552.78;10254262;28;20433;-75
2021/01/31 05:03:17;;;;;;;13.73;9.65;;;;;;;-1.36;100.00;99563.94;10252535;29;20048;-75
2021/01/31 05:08:25;;;;;;;14.20;8.98;;;;;;;-1.46;100.00;99550.28;10228342;29;20048;-75
2021/01/31 05:13:49;;;;;;;13.55;9.00;;;;;;;-1.34;100.00;99578.53;10213751;29;20044;-76
2021/01/31 05:18:54;;;;;;;13.77;9.77;;;;;;;-1.45;100.00;99559.75;10218132;29;20044;-76
2021/01/31 05:24:06;;;;;;;;;;;;;;;-1.48;100.00;99557.19;10225250;29;20043;-75
2021/01/31 05:29:21;;;;;;;12.70;9.02;;;;;;;-1.51;100.00;99557.25;10199531;29;19926;-75
2021/01/31 05:34:43;;;;;;;13.40;8.52;;;;;;;-1.55;100.00;99553.00;10219913;29;20043;-76
2021/01/31 05:39:59;;;;;;;13.50;8.55;;;;;;;-1.67;100.00;99538.50;10249156;29;20488;-75
2021/01/31 05:45:29;;;;;;;15.50;10.20;;;;;;;-1.67;100.00;99543.66;10244369;29;20050;-75
2021/01/31 05:50:43;;;;;;;11.95;8.85;;;;;;;-1.70;100.00;99542.84;10298377;28;20130;-75
2021/01/31 05:55:44;;;;;;;12.60;8.15;;;;;;;-1.83;100.00;99534.38;10300935;28;20038;-75
2021/01/31 06:00:48;;;;;;;14.27;10.48;;;;;;;-1.87;100.00;99535.31;10276181;28;20057;-76
2021/01/31 06:06:11;;;;;;;13.02;8.73;;;;;;;-1.88;100.00;99549.06;10260169;29;20098;-75
2021/01/31 06:11:25;;;;;;;12.48;8.93;;;;;;;-1.88;100.00;99546.50;10260140;29;20399;-75
2021/01/31 06:16:27;;;;;;;13.23;9.02;;;;;;;-2.03;100.00;99529.47;10260113;28;20047;-76
2021/01/31 06:21:42;;;;;;;13.15;9.63;;;;;;;-2.11;100.00;99528.69;10241710;29;20499;-75
2021/01/31 06:26:43;;;;;;;12.77;8.63;;;;;;;-2.32;100.00;99511.69;10284710;28;20515;-75
2021/01/31 06:31:56;;;;;;;14.45;9.50;;;;;;;-2.34;100.00;99518.59;10242317;29;20055;-75
2021/01/31 06:37:15;;;;;;;12.77;8.20;;;;;;;-2.39;100.00;99525.53;10242624;28;20054;-76
2021/01/31 06:42:33;;;;;;;13.27;8.88;;;;;;;-2.38;100.00;99542.72;10259353;29;20058;-76
2021/01/31 06:47:37;;;;;;;12.05;8.25;;;;;;;-2.21;100.00;99559.75;10272175;28;20039;-75
2021/01/31 06:52:51;;;;;;;12.73;8.93;;;;;;;-2.15;100.00;99576.00;10298143;28;20042;-75
2021/01/31 06:58:02;;;;;;;13.80;8.10;;;;;;;-2.34;100.00;99556.41;10279738;28;20051;-76
2021/01/31 07:03:34;;;;;;;14.98;10.10;;;;;;;-2.13;100.00;99592.34;10257948;29;20510;-75
2021/01/31 07:08:53;;;;;;;12.95;9.07;;;;;;;-2.27;100.00;99567.56;10258556;29;20428;-75
2021/01/31 07:14:00;;;;;;;12.70;9.68;;;;;;;-2.48;100.00;99528.19;10258491;29;20062;-76
2021/01/31 07:19:14;;;;;;;17.33;10.82;;;;;;;-2.33;100.00;99560.72;10240248;29;20058;-76
2021/01/31 07:24:24;;;;;;;17.05;11.80;;;;;;;-2.04;100.00;99573.34;10244788;28;20062;-75
2021/01/31 07:29:47;;;;;;;15.95;10.93;;;;;;;-1.15;100.00;99661.84;10242978;28;20051;-75
2021/01/31 07:35:01;;;;;;;14.98;10.55;;;;;;;-0.74;100.00;99697.50;10275759;28;20051;-75
2021/01/31 07:40:07;;;;;;;19.48;12.55;;;;;;;-0.36;100.00;99728.03;10265489;28;20126;-76
2021/01/31 07:45:16;;;;;;;29.38;19.90;;;;;;;-0.07;100.00;99741.38;10239886;29;20047;-75
2021/01/31 07:50:34;;;;;;;16.73;11.38;;;;;;;-0.19;100.00;99709.69;10229804;29;20043;-75
2021/01/31 07:55:39;;;;;;;14.88;10.65;;;;;;;0.05;100.00;99716.19;10255763;29;20055;-75
2021/01/31 08:00:44;;;;;;;13.85;10.10;;;;;;;0.06;100.00;99671.31;10245919;28;20496;-76
2021/01/31 08:05:57;;;;;;;13.98;9.95;;;;;;;-0.45;100.00;99645.38;10217293;29;20399;-76
2021/01/31 08:10:58;;;;;;;15.90;10.55;;;;;;;-0.27;100.00;99662.34;10255577;29;20055;-75
2021/01/31 08:16:00;;;;;;;16.33;12.55;;;;;;;-0.21;100.00;99670.88;10255981;28;20054;-75
2021/01/31 08:21:01;;;;;;;12.73;10.35;;;;;;;0.69;100.00;99715.94;10260159;28;20427;-75
2021/01/31 08:26:06;;;;;;;13.63;9.95;;;;;;;0.91;100.00;99738.00;10274063;28;20368;-75
2021/01/31 08:31:15;;;;;;;14.05;11.30;;;;;;;1.69;96.81;99750.19;10259457;28;20054;-75
2021/01/31 08:36:19;;;;;;;12.48;10.02;;;;;;;2.13;90.78;99732.75;10249678;28;20043;-75
2021/01/31 08:41:32;;;;;;;13.85;10.57;;;;;;;2.34;85.73;99716.63;10255195;28;20047;-75
2021/01/31 08:46:35;;;;;;;13.60;10.73;;;;;;;2.66;83.47;99701.06;10271337;28;20129;-74
2021/01/31 08:51:38;;;;;;;13.77;10.38;;;;;;;2.13;83.93;99641.81;10272344;28;20050;-75
2021/01/31 08:56:45;;;;;;;14.30;9.95;;;;;;;2.58;83.15;99682.22;10252569;28;20043;-75
2021/01/31 09:02:09;;;;;;;12.63;9.70;;;;;;;2.91;80.14;99687.38;10268151;28;20051;-75
2021/01/31 09:07:17;;;;;;;12.45;9.65;;;;;;;3.33;78.65;99696.56;10249850;28;20050;-75
2021/01/31 09:12:22;;;;;;;15.20;9.73;;;;;;;2.96;76.25;99592.69;10267814;28;20038;-75
2021/01/31 09:17:26;;;;;;;12.90;10.43;;;;;;;2.76;79.36;99635.81;10250140;28;20049;-75
2021/01/31 09:22:27;;;;;;;12.60;10.63;;;;;;;3.15;78.21;99624.22;10251076;28;20100;-75
2021/01/31 09:27:30;;;;;;;13.23;10.25;;;;;;;2.48;79.26;99592.38;10254920;28;20290;-75
2021/01/31 09:32:37;;;;;;;12.77;10.68;;;;;;;2.59;77.87;99568.69;10272508;28;20407;-75
2021/01/31 09:37:38;;;;;;;14.45;10.48;;;;;;;2.23;82.34;99632.91;10272280;28;20061;-75
2021/01/31 09:42:41;;;;;;;12.30;10.20;;;;;;;2.63;81.86;99656.94;10268911;28;20401;-75
2021/01/31 09:47:47;;;;;;;12.70;10.60;;;;;;;1.99;82.78;99605.81;10264983;28;20035;-75
2021/01/31 09:52:50;;;;;;;12.43;10.10;;;;;;;2.68;81.71;99657.66;10254168;28;20483;-75
2021/01/31 09:57:52;;;;;;;12.05;9.32;;;;;;;3.07;79.45;99635.75;10252640;29;20043;-75
2021/01/31 10:03:06;;;;;;;14.95;10.95;;;;;;;2.71;80.18;99616.84;10254744;28;20043;-75
2021/01/31 10:08:14;;;;;;;14.48;11.30;;;;;;;5.03;74.28;99741.41;10241699;29;20392;-75
2021/01/31 10:13:21;;;;;;;12.73;9.40;;;;;;;4.72;75.51;99737.25;10258326;29;20070;-75
2021/01/31 10:18:36;;;;;;;14.05;10.50;;;;;;;3.31;74.87;99556.94;10259183;28;20051;-75
2021/01/31 10:23:38;;;;;;;13.32;10.82;;;;;;;3.27;75.89;99584.81;10258834;28;20043;-75
2021/01/31 10:28:52;;;;;;;13.93;10.02;;;;;;;3.10;77.87;99579.25;10271856;28;20047;-74
2021/01/31 10:33:54;;;;;;;13.18;10.07;;;;;;;4.23;76.40;99662.44;10257824;29;20054;-74
2021/01/31 10:39:03;;;;;;;12.00;9.73;;;;;;;4.44;74.67;99599.13;10257250;28;20511;-74
2021/01/31 10:44:10;;;;;;;12.50;10.10;;;;;;;4.28;76.06;99617.97;10258194;28;20047;-74
2021/01/31 10:49:11;;;;;;;13.27;9.73;;;;;;;2.80;77.24;99470.97;10265049;28;20055;-74
2021/01/31 10:54:14;;;;;;;12.15;9.93;;;;;;;2.91;78.71;99497.50;10272870;28;20039;-74
2021/01/31 10:59:17;;;;;;;11.70;8.52;;;;;;;3.77;76.82;99551.94;10266526;28;20082;-73
2021/01/31 11:04:19;;;;;;;13.40;10.02;;;;;;;4.33;76.59;99600.44;10267286;28;20047;-74
2021/01/31 11:09:20;;;;;;;12.80;9.10;;;;;;;4.00;76.92;99552.91;10272133;28;20480;-74
2021/01/31 11:14:21;;;;;;;10.43;8.38;;;;;;;3.74;76.64;99499.97;10274625;28;20050;-74
2021/01/31 11:19:22;;;;;;;11.18;8.85;;;;;;;2.60;79.01;99416.97;10274343;28;20395;-74
2021/01/31 11:24:23;;;;;;;10.93;8.27;;;;;;;3.01;78.13;99433.88;10256779;29;20404;-73
2021/01/31 11:29:34;;;;;;;7.75;5.38;;;;;;;4.39;79.01;99584.56;10255878;28;20039;-73
2021/01/31 11:34:35;;;;;;;6.55;5.05;;;;;;;4.11;79.27;99556.00;10244633;28;20044;-74
2021/01/31 11:39:36;;;;;;;6.30;4.65;;;;;;;3.15;81.61;99475.91;10242869;28;20078;-73
2021/01/31 11:44:37;;;;;;;6.78;4.30;;;;;;;2.49;84.88;99458.91;10246889;29;20043;-73
2021/01/31 11:49:38;;;;;;;8.18;5.38;;;;;;;2.77;85.18;99458.88;10255381;28;20039;-73
2021/01/31 11:54:40;;;;;;;8.38;5.78;;;;;;;2.52;86.62;99456.19;10244401;28;20484;-74
2021/01/31 11:59:42;;;;;;;7.07;5.28;;;;;;;2.19;88.03;99419.06;10270014;28;20146;-75
2021/01/31 12:04:43;;;;;;;7.20;5.07;;;;;;;2.12;90.19;99473.84;10261903;28;20039;-75
2021/01/31 12:09:44;;;;;;;9.10;5.80;;;;;;;2.44;92.49;99494.56;10226548;28;20062;-75
2021/01/31 12:14:45;;;;;;;9.55;6.28;;;;;;;2.02;92.63;99456.81;10254362;29;20051;-75
2021/01/31 12:19:46;;;;;;;8.55;5.75;;;;;;;2.05;94.85;99480.97;10253667;28;20086;-75
2021/01/31 12:24:56;;;;;;;8.48;6.20;;;;;;;1.83;92.89;99433.97;10213398;29;20048;-75
2021/01/31 12:29:57;;;;;;;8.85;6.38;;;;;;;1.96;92.63;99444.00;10238121;28;20035;-75
2021/01/31 12:34:59;;;;;;;10.63;6.75;;;;;;;3.41;88.07;99546.19;10252526;28;20065;-75
2021/01/31 12:40:00;;;;;;;8.82;6.13;;;;;;;3.09;85.40;99437.09;10253628;28;20062;-75
2021/01/31 12:45:02;;;;;;;9.68;6.82;;;;;;;2.96;83.87;99431.41;10236086;29;20049;-74
2021/01/31 12:50:04;;;;;;;8.85;6.55;;;;;;;4.20;83.33;99529.59;10253115;29;20043;-74
2021/01/31 12:55:08;;;;;;;7.80;6.03;;;;;;;4.51;79.94;99485.88;10235615;29;20531;-74
2021/01/31 13:00:13;;;;;;;8.50;5.95;;;;;;;4.26;78.99;99453.81;10253118;28;20047;-74
2021/01/31 13:05:20;;;;;;;8.77;6.90;;;;;;;4.81;77.77;99481.25;10247524;29;20056;-74
2021/01/31 13:10:21;;;;;;;8.57;6.13;;;;;;;4.70;77.18;99426.00;10213195;29;20071;-74
2021/01/31 13:15:23;;;;;;;15.00;7.05;;;;;;;5.66;74.63;99463.84;10212688;29;20051;-74
2021/01/31 13:20:27;;;;;;;7.82;5.95;;;;;;;3.59;79.12;99328.63;10216813;29;20166;-74
2021/01/31 13:25:29;;;;;;;10.57;7.15;;;;;;;3.63;80.30;99339.75;10252386;29;20098;-73
2021/01/31 13:30:31;;;;;;;9.30;6.90;;;;;;;3.75;80.85;99314.13;10250897;28;20431;-74
2021/01/31 13:35:33;;;;;;;8.77;6.80;;;;;;;3.03;83.95;99274.22;10251228;28;20050;-73
2021/01/31 13:40:34;;;;;;;9.43;6.30;;;;;;;3.23;88.72;99319.50;10258849;28;20055;-74
2021/01/31 13:45:35;;;;;;;8.50;6.45;;;;;;;4.07;86.10;99377.19;10243174;28;20054;-74
2021/01/31 13:50:37;;;;;;;9.38;6.07;;;;;;;4.56;82.99;99397.03;10260319;29;20061;-74
2021/01/31 13:55:38;;;;;;;11.35;7.78;;;;;;;4.56;81.06;99361.34;10260920;29;20491;-74
2021/01/31 14:00:39;;;;;;;11.25;8.32;;;;;;;4.10;82.79;99309.34;10259370;29;20050;-73
2021/01/31 14:05:40;;;;;;;10.30;8.02;;;;;;;3.22;86.44;99230.19;10260258;28;20039;-74
2021/01/31 14:10:42;;;;;;;11.80;8.30;;;;;;;2.83;90.01;99247.22;10272376;28;20046;-74
2021/01/31 14:15:43;;;;;;;11.32;7.43;;;;;;;2.33;93.24;99217.72;10242243;28;20051;-74
2021/01/31 14:20:44;;;;;;;12.52;8.40;;;;;;;2.18;97.04;99224.25;10295572;28;20046;-74
2021/01/31 14:25:45;;;;;;;40.00;31.58;;;;;;;2.30;99.24;99255.06;10299128;28;20051;-74
2021/01/31 14:30:46;;;;;;;15.20;10.90;;;;;;;2.55;98.52;99294.09;10267533;28;20039;-74
2021/01/31 14:35:47;;;;;;;12.35;8.77;;;;;;;2.54;98.87;99300.19;10240337;28;20047;-74
2021/01/31 14:40:48;;;;;;;13.48;9.73;;;;;;;2.20;99.84;99258.84;10258420;28;20064;-74
2021/01/31 14:45:50;;;;;;;13.48;8.95;;;;;;;1.83;100.00;99230.59;10254471;29;20404;-74
2021/01/31 14:50:51;;;;;;;14.15;9.32;;;;;;;1.73;100.00;99232.63;10257058;28;20047;-74
2021/01/31 14:55:52;;;;;;;15.25;8.60;;;;;;;1.64;100.00;99239.81;10258415;29;20047;-74
2021/01/31 15:00:53;;;;;;;10.50;6.85;;;;;;;1.30;100.00;99229.59;10258515;29;20051;-74
2021/01/31 15:05:55;;;;;;;10.32;6.82;;;;;;;1.05;100.00;99203.50;10249214;28;20475;-75
2021/01/31 15:10:56;;;;;;;10.43;5.45;;;;;;;1.04;100.00;99214.75;10256804;28;20047;-75
2021/01/31 15:15:57;;;;;;;12.25;8.43;;;;;;;1.10;100.00;99235.34;10258051;28;20067;-75
2021/01/31 15:20:58;;;;;;;12.27;8.43;;;;;;;1.04;100.00;99235.50;10258066;29;20043;-74
2021/01/31 15:25:59;;;;;;;14.65;8.82;;;;;;;1.01;100.00;99239.03;10243865;29;20040;-75
2021/01/31 15:31:00;;;;;;;13.07;8.85;;;;;;;0.98;100.00;99235.69;10230499;28;20052;-74
2021/01/31 15:36:02;;;;;;;14.68;8.65;;;;;;;1.17;100.00;99257.63;10258305;28;20045;-74
2021/01/31 15:41:03;;;;;;;16.00;9.85;;;;;;;1.13;100.00;99256.00;10253924;28;20050;-75
2021/01/31 15:46:06;;;;;;;15.07;9.65;;;;;;;1.07;100.00;99233.69;10262935;28;20042;-75
2021/01/31 15:51:07;;;;;;;14.90;9.98;;;;;;;0.91;100.00;99216.88;10261204;28;20531;-74
2021/01/31 15:56:09;;;;;;;15.30;8.95;;;;;;;1.09;100.00;99234.47;10255462;28;20066;-75
2021/01/31 16:01:10;;;;;;;14.50;9.90;;;;;;;0.94;100.00;99211.56;10260580;28;20401;-75
2021/01/31 16:06:11;;;;;;;11.40;8.43;;;;;;;1.00;100.00;99224.38;10258004;28;20114;-75
2021/01/31 16:11:12;;;;;;;10.40;6.82;;;;;;;0.84;100.00;99191.97;10281227;28;20043;-76
2021/01/31 16:16:15;;;;;;;13.43;8.70;;;;;;;0.92;100.00;99202.97;10279652;28;20055;-76
2021/01/31 16:21:18;;;;;;;12.85;7.75;;;;;;;0.92;100.00;99208.16;10236176;28;20090;-75
2021/01/31 16:26:19;;;;;;;13.63;9.00;;;;;;;0.96;100.00;99203.75;10259010;28;20043;-76
2021/01/31 16:31:20;;;;;;;16.00;10.65;;;;;;;0.89;100.00;99190.13;10233267;28;20395;-75
2021/01/31 16:36:24;;;;;;;13.10;9.40;;;;;;;0.95;100.00;99194.28;10241026;29;20039;-76
2021/01/31 16:41:25;;;;;;;13.65;9.38;;;;;;;0.86;100.00;99174.66;10235582;29;20423;-76
2021/01/31 16:46:27;;;;;;;17.75;10.70;;;;;;;1.03;100.00;99194.91;10252416;28;20071;-76
2021/01/31 16:51:28;;;;;;;13.80;9.55;;;;;;;0.91;100.00;99183.16;10253202;29;20062;-76
2021/01/31 16:56:29;;;;;;;13.77;9.15;;;;;;;0.90;100.00;99165.91;10252887;28;20039;-76
2021/01/31 17:01:32;;;;;;;14.23;9.00;;;;;;;0.84;100.00;99160.88;10235952;29;20051;-76
2021/01/31 17:06:34;;;;;;;14.27;9.32;;;;;;;1.00;100.00;99174.28;10252659;29;20074;-75
2021/01/31 17:11:36;;;;;;;13.05;8.57;;;;;;;0.98;100.00;99181.25;10235099;29;20077;-76
2021/01/31 17:16:37;;;;;;;14.65;9.60;;;;;;;0.94;100.00;99161.47;10234563;28;20040;-76
2021/01/31 17:21:38;;;;;;;14.48;8.48;;;;;;;0.94;100.00;99161.47;10253034;28;20043;-75
2021/01/31 17:26:39;;;;;;;16.23;9.63;;;;;;;0.94;100.00;99154.53;10235058;29;20047;-75
2021/01/31 17:31:41;;;;;;;13.23;9.10;;;;;;;0.94;100.00;99133.78;10252874;28;20693;-75
2021/01/31 17:36:42;;;;;;;15.23;10.63;;;;;;;0.94;100.00;99133.78;10234764;29;20051;-75
2021/01/31 17:41:43;;;;;;;14.77;9.45;;;;;;;0.93;100.00;99116.53;10214575;28;20132;-75
2021/01/31 17:46:47;;;;;;;15.70;10.70;;;;;;;0.94;100.00;99128.63;10249280;28;20047;-75
2021/01/31 17:51:48;;;;;;;13.38;8.70;;;;;;;0.93;100.00;99111.34;10230475;29;20416;-75
2021/01/31 17:56:50;;;;;;;15.77;10.80;;;;;;;0.86;100.00;99083.06;10250950;28;20040;-75
2021/01/31 18:01:51;;;;;;;17.52;11.07;;;;;;;0.93;100.00;99105.31;10267503;28;20410;-75
2021/01/31 18:06:52;;;;;;;16.80;10.43;;;;;;;0.84;100.00;99067.56;10218657;29;20655;-75
2021/01/31 18:11:53;;;;;;;17.88;10.75;;;;;;;0.89;100.00;99083.84;10251754;28;20050;-75
2021/01/31 18:16:54;;;;;;;18.60;11.57;;;;;;;0.92;100.00;99067.34;10273930;28;20387;-75
2021/01/31 18:21:55;;;;;;;20.00;13.15;;;;;;;0.75;100.00;99055.72;10291404;28;20415;-75
2021/01/31 18:26:56;;;;;;;17.67;11.07;;;;;;;0.99;100.00;99054.16;10253791;28;20054;-75
2021/01/31 18:31:58;;;;;;;18.42;11.25;;;;;;;0.88;100.00;99042.41;10242009;29;20396;-76
2021/01/31 18:36:59;;;;;;;16.70;10.48;;;;;;;0.83;100.00;99032.19;10259219;28;20047;-75
2021/01/31 18:42:01;;;;;;;14.00;8.65;;;;;;;0.82;100.00;99014.09;10258079;29;20069;-75
2021/01/31 18:47:02;;;;;;;22.17;14.32;;;;;;;0.76;100.00;98995.22;10228790;29;20060;-75
2021/01/31 18:52:04;;;;;;;16.75;10.18;;;;;;;0.82;100.00;99027.03;10234051;28;20036;-75
2021/01/31 18:57:05;;;;;;;19.40;12.50;;;;;;;0.85;100.00;98988.91;10255197;28;20044;-75
2021/01/31 19:02:06;;;;;;;24.08;14.57;;;;;;;0.75;100.00;98974.56;10272863;28;20039;-75
2021/01/31 19:07:08;;;;;;;18.00;12.20;;;;;;;0.81;100.00;98982.13;10269454;28;20043;-75
2021/01/31 19:12:09;;;;;;;17.20;10.77;;;;;;;0.86;100.00;98961.22;10284443;28;20049;-75
2021/01/31 19:17:11;;;;;;;18.20;11.93;;;;;;;0.79;100.00;98950.22;10283665;28;20484;-75
2021/01/31 19:22:12;;;;;;;17.05;11.75;;;;;;;0.93;100.00;98975.69;10240819;29;20054;-76
2021/01/31 19:27:13;;;;;;;21.95;14.90;;;;;;;0.93;100.00;98966.16;10239218;28;20039;-75
2021/01/31 19:32:15;;;;;;;19.13;11.60;;;;;;;0.87;100.00;98937.88;10253962;29;20047;-76
2021/01/31 19:37:16;;;;;;;18.88;12.00;;;;;;;0.91;100.00;98939.47;10233628;28;20058;-76
2021/01/31 19:42:18;;;;;;;23.35;13.73;;;;;;;0.88;100.00;98925.75;10238842;29;20055;-75
2021/01/31 19:47:21;;;;;;;23.17;13.73;;;;;;;0.91;100.00;98917.88;10240207;28;20436;-75
2021/01/31 19:52:22;;;;;;;19.55;11.07;;;;;;;0.96;100.00;98928.94;10252702;28;20047;-76
2021/01/31 19:57:24;;;;;;;22.58;15.35;;;;;;;0.96;100.00;98914.25;10247796;28;20039;-76
2021/01/31 20:02:25;;;;;;;22.45;13.65;;;;;;;0.99;100.00;98906.38;10255777;29;20043;-76
2021/01/31 20:07:27;;;;;;;19.90;12.60;;;;;;;0.97;100.00;98899.53;10243394;28;20162;-75
2021/01/31 20:12:28;;;;;;;21.52;14.18;;;;;;;1.00;100.00;98899.44;10255583;29;20503;-76
2021/01/31 20:17:29;;;;;;;25.63;16.25;;;;;;;0.92;100.00;98873.75;10276836;28;20521;-76
2021/01/31 20:22:30;;;;;;;23.38;15.02;;;;;;;0.93;100.00;98870.25;10266872;28;20051;-75
2021/01/31 20:27:32;;;;;;;22.35;13.05;;;;;;;0.86;100.00;98854.97;10232567;28;20047;-76
2021/01/31 20:32:33;;;;;;;21.38;12.52;;;;;;;0.92;100.00;98862.56;10257774;28;20047;-75
2021/01/31 20:37:36;;;;;;;24.92;15.05;;;;;;;0.91;100.00;98851.34;10253913;29;20403;-75
2021/01/31 20:42:39;;;;;;;27.70;17.48;;;;;;;0.91;100.00;98835.78;10174919;29;20096;-75
2021/01/31 20:47:41;;;;;;;24.15;15.43;;;;;;;0.90;100.00;98849.63;10176094;29;20052;-75
2021/01/31 20:52:42;;;;;;;24.52;14.27;;;;;;;0.88;100.00;98828.09;10173416;29;20055;-75
2021/01/31 20:57:45;;;;;;;27.92;16.15;;;;;;;0.88;100.00;98820.31;10174724;29;20043;-75
2021/01/31 21:02:46;;;;;;;23.60;14.90;;;;;;;0.86;100.00;98797.94;10173945;29;20051;-75
2021/01/31 21:07:48;;;;;;;27.08;17.48;;;;;;;0.84;100.00;98792.78;10174669;29;20048;-75
2021/01/31 21:12:49;;;;;;;25.98;16.00;;;;;;;0.80;100.00;98775.66;10175445;29;20048;-75
2021/01/31 21:17:51;;;;;;;24.98;14.60;;;;;;;0.73;100.00;98758.66;10173625;29;20044;-76
2021/01/31 21:22:52;;;;;;;27.48;16.85;;;;;;;0.72;100.00;98746.59;10174709;29;20095;-76
2021/01/31 21:27:54;;;;;;;29.80;19.05;;;;;;;0.72;100.00;98725.84;10176237;29;20052;-76
2021/01/31 21:32:55;;;;;;;29.13;18.60;;;;;;;0.73;100.00;98722.38;10175407;29;20052;-76
2021/01/31 21:37:57;;;;;;;26.42;16.85;;;;;;;0.70;100.00;98712.94;10179577;29;20067;-76
2021/01/31 21:42:58;;;;;;;27.35;17.05;;;;;;;0.64;100.00;98699.34;10253729;29;20047;-76
2021/01/31 21:47:59;;;;;;;29.80;19.17;;;;;;;0.69;100.00;98697.44;10252580;29;20039;-77
2021/01/31 21:53:02;;;;;;;23.92;15.02;;;;;;;0.74;100.00;98700.72;10252603;29;20130;-76
2021/01/31 21:58:03;;;;;;;28.98;17.50;;;;;;;0.77;100.00;98692.84;10236070;28;20678;-76
2021/01/31 22:03:04;;;;;;;27.67;18.42;;;;;;;0.80;100.00;98681.53;10286152;28;20101;-76
2021/01/31 22:08:05;;;;;;;29.73;16.77;;;;;;;0.77;100.00;98674.69;10300834;28;20046;-76
2021/01/31 22:13:07;;;;;;;24.00;15.48;;;;;;;0.74;100.00;98670.50;10275523;28;20055;-76
2021/01/31 22:18:08;;;;;;;23.55;15.57;;;;;;;0.83;100.00;98671.91;10243097;29;20058;-76
2021/01/31 22:23:09;;;;;;;27.35;16.42;;;;;;;0.75;100.00;98651.41;10259620;29;20067;-75
2021/01/31 22:28:10;;;;;;;24.55;14.43;;;;;;;0.87;100.00;98662.25;10260208;28;20121;-76
2021/01/31 22:33:12;;;;;;;29.98;19.20;;;;;;;0.78;100.00;98650.47;10260813;29;20047;-76
2021/01/31 22:38:13;;;;;;;27.20;17.48;;;;;;;0.85;100.00;98656.28;10259092;28;20047;-76
2021/01/31 22:43:16;;;;;;;28.25;17.90;;;;;;;0.91;100.00;98654.31;10261375;29;20535;-77
2021/01/31 22:48:17;;;;;;;24.83;15.32;;;;;;;0.91;100.00;98654.31;10261945;28;20043;-76
2021/01/31 22:53:18;;;;;;;26.77;16.75;;;;;;;0.96;100.00;98654.16;10242010;29;20051;-76
2021/01/31 22:58:19;;;;;;;19.42;11.95;;;;;;;0.96;100.00;98655.00;10250369;28;20517;-76
2021/01/31 23:03:21;;;;;;;19.98;12.82;;;;;;;1.00;100.00;98650.56;10299008;28;20070;-76
2021/01/31 23:08:23;;;;;;;23.20;15.32;;;;;;;0.96;100.00;98648.97;10281272;28;20043;-76
2021/01/31 23:13:25;;;;;;;25.45;15.43;;;;;;;1.04;100.00;98649.53;10250403;28;20046;-77